METAR
METAR

METAR

METAR EPSY 231900Z VRB02KT 9999 FEW010 M05/M06 Q1032=
TAF EPSY 231730Z 2318/2403 15005KT 9999 SCT040 PROB30 TEMPO 2318/2403 4000 BR BKN014=
Ostrzeżenia
Ostrzeżenia

Ostrzeżenia

OSTRZEZENIE LOTNISKOWE DLA LOTNISKA SZYMANY WAZNOSC OD: 00:30 22-01-2022 UTC DO: 06:00 22-01-2022 UTC ZJAWISKO: PORYWY WIATRU, UMIARKOWANE I SILNE OPADY SNIEGU, ZAMIEC SNIEZNA. PRZEBIEG: W REJONIE LOTNISKA EPSY PROGNOZUJE SIE WIATR Z KIERUNKU 280-310 O SREDNIEJ PREDKOSCI 10-13 KT, W PORYWACH DO 23 KT, PRZELOTNE OPADY SNIEGU O NATEZENIU UMIARKOWANYM I SILNYM, OGRANICZAJACE WIDZIALNOSC DO 1500-0500 M ORAZ OKRESAMI ZAMIEC SNIEZNA. OPRACOWAL: WIOLETA NAPIORKOWSKA DNIA 21-01-2022 23:25 UTC NR OSTRZEZENIA: 32/2022